Check out our new PWSWeather beta!
PWSweather.com
Personal Weather Stations
Station Observations
KNCGREEN1000
Bell Orchard Drive, Greensboro, NC 27455

Bell Orchard DriveGreensboro, NC 27455

Lat: 36.132, Lon: -79.8

Elevation: 876

Station Type: Acurite Atlas

Http://www.gilhutcheson.com

High Low Average
Temperature 52.1°F11.2°C 35.3°F1.8°C 42.7°F5.9°C
Dew Point 51.4°F10.8°C 27.4°F-2.6°C 38.7°F3.7°C
Winds 9.0 mph 14.5 kmh Calm Calm 2.0 mph S3.2 kmh S
Wind Gusts -- -- --
Humidity 98% 68% 86%
Pressure 30.33 in1027.1 mb 30.03 in1016.9 mb -
Precipitation 0.03 in0.8 mm - -
Hour Temp Dew Point Humidity Winds Wind Gusts Pressure Precip Precip Rate Daily Precip Total
12:03 AM 35.3°F1.8°C 28.7°F-1.8°C 77% Calm Calm -- 30.33 in1027.1 mb 0.00 in0.0 mm 0.00 in0.0 mm 0.00 in0.0 mm
12:09 AM 35.3°F1.8°C 29.0°F-1.7°C 78% 2.0 mph W3.2 kmh W -- 30.32 in1026.8 mb 0.00 in0.0 mm 0.00 in0.0 mm 0.00 in0.0 mm
12:13 AM 35.3°F1.8°C 29.3°F-1.5°C 79% 1.0 mph SSW1.6 kmh SSW -- 30.32 in1026.8 mb 0.00 in0.0 mm 0.00 in0.0 mm 0.00 in0.0 mm
12:18 AM 35.3°F1.8°C 29.0°F-1.7°C 78% 2.0 mph WNW3.2 kmh WNW -- 30.33 in1027.1 mb 0.00 in0.0 mm 0.00 in0.0 mm 0.00 in0.0 mm
12:23 AM 35.5°F1.9°C 29.2°F-1.6°C 78% 2.0 mph NNW3.2 kmh NNW -- 30.33 in1027.1 mb 0.00 in0.0 mm 0.00 in0.0 mm 0.00 in0.0 mm
12:29 AM 35.7°F2.1°C 28.9°F-1.7°C 76% 2.0 mph E3.2 kmh E -- 30.33 in1027.1 mb 0.00 in0.0 mm 0.00 in0.0 mm 0.00 in0.0 mm
12:33 AM 36.0°F2.2°C 28.7°F-1.8°C 75% 1.0 mph E1.6 kmh E -- 30.32 in1026.8 mb 0.00 in0.0 mm 0.00 in0.0 mm 0.00 in0.0 mm
12:38 AM 36.2°F2.3°C 28.9°F-1.7°C 75% 1.0 mph SW1.6 kmh SW -- 30.31 in1026.4 mb 0.00 in0.0 mm 0.00 in0.0 mm 0.00 in0.0 mm
12:43 AM 36.0°F2.2°C 28.7°F-1.8°C 75% Calm Calm -- 30.31 in1026.4 mb 0.00 in0.0 mm 0.00 in0.0 mm 0.00 in0.0 mm
12:49 AM 35.9°F2.2°C 28.7°F-1.8°C 75% Calm Calm -- 30.31 in1026.4 mb 0.00 in0.0 mm 0.00 in0.0 mm 0.00 in0.0 mm
12:53 AM 35.8°F2.1°C 28.5°F-1.9°C 75% Calm Calm -- 30.31 in1026.4 mb 0.00 in0.0 mm 0.00 in0.0 mm 0.00 in0.0 mm
12:58 AM 35.8°F2.1°C 28.9°F-1.7°C 76% Calm Calm -- 30.30 in1026.1 mb 0.00 in0.0 mm 0.00 in0.0 mm 0.00 in0.0 mm
01:04 AM 35.7°F2.1°C 28.2°F-2.1°C 74% Calm Calm -- 30.30 in1026.1 mb 0.00 in0.0 mm 0.00 in0.0 mm 0.00 in0.0 mm
01:08 AM 35.7°F2.1°C 28.5°F-1.9°C 75% Calm Calm -- 30.30 in1026.1 mb 0.00 in0.0 mm 0.00 in0.0 mm 0.00 in0.0 mm
01:13 AM 35.6°F2.0°C 27.7°F-2.4°C 73% Calm Calm -- 30.29 in1025.7 mb 0.00 in0.0 mm 0.00 in0.0 mm 0.00 in0.0 mm
01:18 AM 35.7°F2.1°C 27.9°F-2.3°C 73% Calm Calm -- 30.29 in1025.7 mb 0.00 in0.0 mm 0.00 in0.0 mm 0.00 in0.0 mm
01:23 AM 35.8°F2.1°C 27.5°F-2.5°C 72% Calm Calm -- 30.29 in1025.7 mb 0.00 in0.0 mm 0.00 in0.0 mm 0.00 in0.0 mm
01:28 AM 35.8°F2.1°C 27.5°F-2.5°C 72% Calm Calm -- 30.28 in1025.4 mb 0.00 in0.0 mm 0.00 in0.0 mm 0.00 in0.0 mm
01:33 AM 36.0°F2.2°C 27.4°F-2.6°C 71% 1.0 mph SE1.6 kmh SE -- 30.28 in1025.4 mb 0.00 in0.0 mm 0.00 in0.0 mm 0.00 in0.0 mm
01:38 AM 36.1°F2.3°C 27.9°F-2.3°C 72% Calm Calm -- 30.28 in1025.4 mb 0.00 in0.0 mm 0.00 in0.0 mm 0.00 in0.0 mm
01:44 AM 36.3°F2.4°C 28.7°F-1.8°C 74% 1.0 mph WSW1.6 kmh WSW -- 30.28 in1025.4 mb 0.00 in0.0 mm 0.00 in0.0 mm 0.00 in0.0 mm
01:48 AM 36.4°F2.4°C 29.1°F-1.6°C 75% 1.0 mph SSW1.6 kmh SSW -- 30.29 in1025.7 mb 0.00 in0.0 mm 0.00 in0.0 mm 0.00 in0.0 mm
01:53 AM 36.4°F2.4°C 29.4°F-1.4°C 76% Calm Calm -- 30.29 in1025.7 mb 0.00 in0.0 mm 0.00 in0.0 mm 0.00 in0.0 mm
01:58 AM 36.4°F2.4°C 29.4°F-1.4°C 76% Calm Calm -- 30.29 in1025.7 mb 0.00 in0.0 mm 0.00 in0.0 mm 0.00 in0.0 mm
02:04 AM 36.3°F2.4°C 29.7°F-1.3°C 77% 1.0 mph SW1.6 kmh SW -- 30.29 in1025.7 mb 0.00 in0.0 mm 0.00 in0.0 mm 0.00 in0.0 mm
02:08 AM 36.3°F2.4°C 29.7°F-1.3°C 77% 2.0 mph SE3.2 kmh SE -- 30.29 in1025.7 mb 0.00 in0.0 mm 0.00 in0.0 mm 0.00 in0.0 mm
02:13 AM 36.3°F2.4°C 29.7°F-1.3°C 77% 1.0 mph ESE1.6 kmh ESE -- 30.28 in1025.4 mb 0.00 in0.0 mm 0.00 in0.0 mm 0.00 in0.0 mm
02:18 AM 36.2°F2.3°C 29.9°F-1.2°C 78% Calm Calm -- 30.28 in1025.4 mb 0.00 in0.0 mm 0.00 in0.0 mm 0.00 in0.0 mm
02:24 AM 36.2°F2.3°C 29.5°F-1.4°C 77% 2.0 mph E3.2 kmh E -- 30.28 in1025.4 mb 0.00 in0.0 mm 0.00 in0.0 mm 0.00 in0.0 mm
02:28 AM 36.4°F2.4°C 29.7°F-1.3°C 77% 2.0 mph NE3.2 kmh NE -- 30.27 in1025.1 mb 0.00 in0.0 mm 0.00 in0.0 mm 0.00 in0.0 mm
02:33 AM 36.5°F2.5°C 29.9°F-1.2°C 77% 2.0 mph WSW3.2 kmh WSW -- 30.27 in1025.1 mb 0.00 in0.0 mm 0.00 in0.0 mm 0.00 in0.0 mm
02:38 AM 36.3°F2.4°C 29.7°F-1.3°C 77% 2.0 mph NNW3.2 kmh NNW -- 30.28 in1025.4 mb 0.00 in0.0 mm 0.00 in0.0 mm 0.00 in0.0 mm
02:43 AM 36.4°F2.4°C 29.4°F-1.4°C 76% Calm Calm -- 30.28 in1025.4 mb 0.00 in0.0 mm 0.00 in0.0 mm 0.00 in0.0 mm
02:48 AM 36.4°F2.4°C 29.4°F-1.4°C 76% Calm Calm -- 30.27 in1025.1 mb 0.00 in0.0 mm 0.00 in0.0 mm 0.00 in0.0 mm
02:53 AM 36.4°F2.4°C 29.1°F-1.6°C 75% Calm Calm -- 30.28 in1025.4 mb 0.00 in0.0 mm 0.00 in0.0 mm 0.00 in0.0 mm
02:59 AM 36.5°F2.5°C 29.2°F-1.6°C 75% Calm Calm -- 30.27 in1025.1 mb 0.00 in0.0 mm 0.00 in0.0 mm 0.00 in0.0 mm
03:03 AM 36.6°F2.6°C 29.1°F-1.6°C 74% Calm Calm -- 30.27 in1025.1 mb 0.00 in0.0 mm 0.00 in0.0 mm 0.00 in0.0 mm
03:08 AM 36.7°F2.6°C 29.1°F-1.6°C 74% Calm Calm -- 30.27 in1025.1 mb 0.00 in0.0 mm 0.00 in0.0 mm 0.00 in0.0 mm
03:13 AM 36.9°F2.7°C 29.3°F-1.5°C 74% Calm Calm -- 30.26 in1024.7 mb 0.00 in0.0 mm 0.00 in0.0 mm 0.00 in0.0 mm
03:18 AM 37.2°F2.9°C 29.9°F-1.2°C 75% Calm Calm -- 30.27 in1025.1 mb 0.00 in0.0 mm 0.00 in0.0 mm 0.00 in0.0 mm
03:23 AM 37.3°F2.9°C 29.6°F-1.3°C 74% 2.0 mph W3.2 kmh W -- 30.26 in1024.7 mb 0.00 in0.0 mm 0.00 in0.0 mm 0.00 in0.0 mm
03:28 AM 37.5°F3.1°C 30.6°F-0.8°C 76% 2.0 mph NNW3.2 kmh NNW -- 30.26 in1024.7 mb 0.00 in0.0 mm 0.00 in0.0 mm 0.00 in0.0 mm
03:33 AM 37.5°F3.1°C 29.9°F-1.2°C 74% 3.0 mph NE4.8 kmh NE -- 30.26 in1024.7 mb 0.00 in0.0 mm 0.00 in0.0 mm 0.00 in0.0 mm
03:39 AM 37.7°F3.2°C 30.1°F-1.1°C 74% 2.0 mph E3.2 kmh E -- 30.25 in1024.4 mb 0.00 in0.0 mm 0.00 in0.0 mm 0.00 in0.0 mm
03:43 AM 37.7°F3.2°C 30.5°F-0.8°C 75% 1.0 mph ENE1.6 kmh ENE -- 30.24 in1024.0 mb 0.00 in0.0 mm 0.00 in0.0 mm 0.00 in0.0 mm
03:48 AM 37.7°F3.2°C 30.5°F-0.8°C 75% 1.0 mph WSW1.6 kmh WSW -- 30.23 in1023.7 mb 0.00 in0.0 mm 0.00 in0.0 mm 0.00 in0.0 mm
03:53 AM 37.7°F3.2°C 29.8°F-1.2°C 73% 3.0 mph N4.8 kmh N -- 30.24 in1024.0 mb 0.00 in0.0 mm 0.00 in0.0 mm 0.00 in0.0 mm
03:59 AM 37.8°F3.2°C 30.1°F-1.1°C 74% 4.0 mph NW6.4 kmh NW -- 30.25 in1024.4 mb 0.00 in0.0 mm 0.00 in0.0 mm 0.00 in0.0 mm
04:03 AM 37.7°F3.2°C 30.1°F-1.1°C 74% 2.0 mph WSW3.2 kmh WSW -- 30.25 in1024.4 mb 0.00 in0.0 mm 0.00 in0.0 mm 0.00 in0.0 mm
04:08 AM 37.8°F3.2°C 29.8°F-1.2°C 73% Calm Calm -- 30.25 in1024.4 mb 0.00 in0.0 mm 0.00 in0.0 mm 0.00 in0.0 mm
04:13 AM 37.7°F3.2°C 29.8°F-1.2°C 73% 1.0 mph SSW1.6 kmh SSW -- 30.24 in1024.0 mb 0.00 in0.0 mm 0.00 in0.0 mm 0.00 in0.0 mm
04:19 AM 37.7°F3.2°C 29.8°F-1.2°C 73% 1.0 mph SE1.6 kmh SE -- 30.24 in1024.0 mb 0.00 in0.0 mm 0.00 in0.0 mm 0.00 in0.0 mm
04:23 AM 37.7°F3.2°C 30.1°F-1.1°C 74% Calm Calm -- 30.23 in1023.7 mb 0.00 in0.0 mm 0.00 in0.0 mm 0.00 in0.0 mm
04:28 AM 37.6°F3.1°C 29.6°F-1.3°C 73% Calm Calm -- 30.23 in1023.7 mb 0.00 in0.0 mm 0.00 in0.0 mm 0.00 in0.0 mm
04:33 AM 37.6°F3.1°C 29.6°F-1.3°C 73% Calm Calm -- 30.23 in1023.7 mb 0.00 in0.0 mm 0.00 in0.0 mm 0.00 in0.0 mm
04:38 AM 37.6°F3.1°C 29.9°F-1.2°C 74% Calm Calm -- 30.24 in1024.0 mb 0.00 in0.0 mm 0.00 in0.0 mm 0.00 in0.0 mm
04:43 AM 37.7°F3.2°C 30.1°F-1.1°C 74% Calm Calm -- 30.23 in1023.7 mb 0.00 in0.0 mm 0.00 in0.0 mm 0.00 in0.0 mm
04:48 AM 37.7°F3.2°C 29.8°F-1.2°C 73% 1.0 mph SSE1.6 kmh SSE -- 30.22 in1023.4 mb 0.00 in0.0 mm 0.00 in0.0 mm 0.00 in0.0 mm
04:54 AM 37.9°F3.3°C 30.3°F-0.9°C 74% Calm Calm -- 30.21 in1023.0 mb 0.00 in0.0 mm 0.00 in0.0 mm 0.00 in0.0 mm
04:58 AM 38.1°F3.4°C 30.1°F-1.1°C 73% Calm Calm -- 30.22 in1023.4 mb 0.00 in0.0 mm 0.00 in0.0 mm 0.00 in0.0 mm
05:03 AM 38.2°F3.4°C 30.1°F-1.1°C 73% 2.0 mph WNW3.2 kmh WNW -- 30.21 in1023.0 mb 0.00 in0.0 mm 0.00 in0.0 mm 0.00 in0.0 mm
05:08 AM 38.4°F3.6°C 30.8°F-0.7°C 74% 3.0 mph S4.8 kmh S -- 30.23 in1023.7 mb 0.00 in0.0 mm 0.00 in0.0 mm 0.00 in0.0 mm
05:13 AM 38.4°F3.6°C 30.8°F-0.7°C 74% 2.0 mph NE3.2 kmh NE -- 30.23 in1023.7 mb 0.00 in0.0 mm 0.00 in0.0 mm 0.00 in0.0 mm
05:18 AM 38.4°F3.6°C 30.5°F-0.8°C 73% 1.0 mph E1.6 kmh E -- 30.22 in1023.4 mb 0.00 in0.0 mm 0.00 in0.0 mm 0.00 in0.0 mm
05:23 AM 38.3°F3.5°C 30.0°F-1.1°C 72% 2.0 mph NNW3.2 kmh NNW -- 30.21 in1023.0 mb 0.00 in0.0 mm 0.00 in0.0 mm 0.00 in0.0 mm
05:28 AM 38.4°F3.6°C 30.1°F-1.1°C 72% 2.0 mph ESE3.2 kmh ESE -- 30.22 in1023.4 mb 0.00 in0.0 mm 0.00 in0.0 mm 0.00 in0.0 mm
05:34 AM 38.4°F3.6°C 30.1°F-1.1°C 72% 1.0 mph SE1.6 kmh SE -- 30.20 in1022.7 mb 0.00 in0.0 mm 0.00 in0.0 mm 0.00 in0.0 mm
05:38 AM 38.3°F3.5°C 29.6°F-1.3°C 71% Calm Calm -- 30.20 in1022.7 mb 0.00 in0.0 mm 0.00 in0.0 mm 0.00 in0.0 mm
05:43 AM 38.4°F3.6°C 29.8°F-1.2°C 71% 1.0 mph ESE1.6 kmh ESE -- 30.20 in1022.7 mb 0.00 in0.0 mm 0.00 in0.0 mm 0.00 in0.0 mm
05:48 AM 38.3°F3.5°C 29.3°F-1.5°C 70% Calm Calm -- 30.20 in1022.7 mb 0.00 in0.0 mm 0.00 in0.0 mm 0.00 in0.0 mm
05:54 AM 38.4°F3.6°C 29.8°F-1.2°C 71% 1.0 mph S1.6 kmh S -- 30.20 in1022.7 mb 0.00 in0.0 mm 0.00 in0.0 mm 0.00 in0.0 mm
05:58 AM 38.4°F3.6°C 29.8°F-1.2°C 71% Calm Calm -- 30.20 in1022.7 mb 0.00 in0.0 mm 0.00 in0.0 mm 0.00 in0.0 mm
06:03 AM 38.5°F3.6°C 29.8°F-1.2°C 71% 2.0 mph NW3.2 kmh NW -- 30.20 in1022.7 mb 0.00 in0.0 mm 0.00 in0.0 mm 0.00 in0.0 mm
06:08 AM 38.5°F3.6°C 29.8°F-1.2°C 71% Calm Calm -- 30.20 in1022.7 mb 0.00 in0.0 mm 0.00 in0.0 mm 0.00 in0.0 mm
06:14 AM 38.6°F3.7°C 30.0°F-1.1°C 71% 1.0 mph SW1.6 kmh SW -- 30.21 in1023.0 mb 0.00 in0.0 mm 0.00 in0.0 mm 0.00 in0.0 mm
06:18 AM 38.7°F3.7°C 30.0°F-1.1°C 71% Calm Calm -- 30.21 in1023.0 mb 0.00 in0.0 mm 0.00 in0.0 mm 0.00 in0.0 mm
06:23 AM 38.6°F3.7°C 30.0°F-1.1°C 71% Calm Calm -- 30.21 in1023.0 mb 0.00 in0.0 mm 0.00 in0.0 mm 0.00 in0.0 mm
06:28 AM 38.7°F3.7°C 30.0°F-1.1°C 71% Calm Calm -- 30.20 in1022.7 mb 0.00 in0.0 mm 0.00 in0.0 mm 0.00 in0.0 mm
06:34 AM 38.8°F3.8°C 30.1°F-1.1°C 71% Calm Calm -- 30.21 in1023.0 mb 0.00 in0.0 mm 0.00 in0.0 mm 0.00 in0.0 mm
06:38 AM 38.9°F3.8°C 30.1°F-1.1°C 71% Calm Calm -- 30.21 in1023.0 mb 0.00 in0.0 mm 0.00 in0.0 mm 0.00 in0.0 mm
06:43 AM 38.9°F3.8°C 30.1°F-1.1°C 71% Calm Calm -- 30.20 in1022.7 mb 0.00 in0.0 mm 0.00 in0.0 mm 0.00 in0.0 mm
06:48 AM 39.1°F3.9°C 30.3°F-0.9°C 71% 1.0 mph NE1.6 kmh NE -- 30.21 in1023.0 mb 0.00 in0.0 mm 0.00 in0.0 mm 0.00 in0.0 mm
06:53 AM 39.1°F3.9°C 29.6°F-1.3°C 69% Calm Calm -- 30.20 in1022.7 mb 0.00 in0.0 mm 0.00 in0.0 mm 0.00 in0.0 mm
06:59 AM 39.1°F3.9°C 30.0°F-1.1°C 70% 1.0 mph S1.6 kmh S -- 30.19 in1022.4 mb 0.00 in0.0 mm 0.00 in0.0 mm 0.00 in0.0 mm
07:03 AM 39.1°F3.9°C 29.6°F-1.3°C 69% 1.0 mph SSW1.6 kmh SSW -- 30.20 in1022.7 mb 0.00 in0.0 mm 0.00 in0.0 mm 0.00 in0.0 mm
07:08 AM 39.2°F4.0°C 29.8°F-1.2°C 69% Calm Calm -- 30.20 in1022.7 mb 0.00 in0.0 mm 0.00 in0.0 mm 0.00 in0.0 mm
07:13 AM 39.2°F4.0°C 29.8°F-1.2°C 69% Calm Calm -- 30.20 in1022.7 mb 0.00 in0.0 mm 0.00 in0.0 mm 0.00 in0.0 mm
07:19 AM 39.2°F4.0°C 29.4°F-1.4°C 68% Calm Calm -- 30.20 in1022.7 mb 0.00 in0.0 mm 0.00 in0.0 mm 0.00 in0.0 mm
07:23 AM 39.4°F4.1°C 29.9°F-1.2°C 69% 2.0 mph S3.2 kmh S -- 30.19 in1022.4 mb 0.00 in0.0 mm 0.00 in0.0 mm 0.00 in0.0 mm
07:28 AM 39.5°F4.2°C 30.1°F-1.1°C 69% 1.0 mph S1.6 kmh S -- 30.20 in1022.7 mb 0.00 in0.0 mm 0.00 in0.0 mm 0.00 in0.0 mm
07:33 AM 39.5°F4.2°C 30.5°F-0.8°C 70% Calm Calm -- 30.20 in1022.7 mb 0.00 in0.0 mm 0.00 in0.0 mm 0.00 in0.0 mm
07:38 AM 39.6°F4.2°C 31.2°F-0.4°C 72% Calm Calm -- 30.20 in1022.7 mb 0.00 in0.0 mm 0.00 in0.0 mm 0.00 in0.0 mm
07:39 AM 39.6°F4.2°C 31.2°F-0.4°C 72% Calm Calm -- 30.20 in1022.7 mb 0.00 in0.0 mm 0.00 in0.0 mm 0.00 in0.0 mm
07:43 AM 39.6°F4.2°C 32.9°F0.5°C 77% Calm Calm -- 30.19 in1022.4 mb 0.00 in0.0 mm 0.00 in0.0 mm 0.00 in0.0 mm
07:48 AM 39.5°F4.2°C 33.2°F0.7°C 78% Calm Calm -- 30.19 in1022.4 mb 0.00 in0.0 mm 0.00 in0.0 mm 0.00 in0.0 mm
07:53 AM 39.4°F4.1°C 34.3°F1.3°C 82% Calm Calm -- 30.18 in1022.0 mb 0.00 in0.0 mm 0.00 in0.0 mm 0.00 in0.0 mm
07:58 AM 39.2°F4.0°C 34.1°F1.2°C 82% Calm Calm -- 30.19 in1022.4 mb 0.00 in0.0 mm 0.00 in0.0 mm 0.00 in0.0 mm
08:03 AM 38.9°F3.8°C 34.4°F1.3°C 84% 1.0 mph SW1.6 kmh SW -- 30.19 in1022.4 mb 0.00 in0.0 mm 0.00 in0.0 mm 0.00 in0.0 mm
08:08 AM 38.7°F3.7°C 34.5°F1.4°C 85% Calm Calm -- 30.20 in1022.7 mb 0.01 in0.3 mm 0.12 in3.0 mm 0.01 in0.3 mm
08:14 AM 38.7°F3.7°C 34.8°F1.6°C 86% Calm Calm -- 30.20 in1022.7 mb 0.01 in0.3 mm 0.00 in0.0 mm 0.01 in0.3 mm
08:18 AM 38.6°F3.7°C 34.8°F1.6°C 86% Calm Calm -- 30.20 in1022.7 mb 0.01 in0.3 mm 0.00 in0.0 mm 0.01 in0.3 mm
08:23 AM 38.5°F3.6°C 34.6°F1.4°C 86% Calm Calm -- 30.20 in1022.7 mb 0.01 in0.3 mm 0.00 in0.0 mm 0.01 in0.3 mm
08:28 AM 38.4°F3.6°C 34.3°F1.3°C 85% Calm Calm -- 30.19 in1022.4 mb 0.01 in0.3 mm 0.00 in0.0 mm 0.01 in0.3 mm
08:33 AM 38.6°F3.7°C 34.8°F1.6°C 86% Calm Calm -- 30.19 in1022.4 mb 0.01 in0.3 mm 0.00 in0.0 mm 0.01 in0.3 mm
08:38 AM 38.6°F3.7°C 34.2°F1.2°C 84% Calm Calm -- 30.18 in1022.0 mb 0.01 in0.3 mm 0.00 in0.0 mm 0.01 in0.3 mm
08:43 AM 38.9°F3.8°C 34.7°F1.5°C 85% Calm Calm -- 30.18 in1022.0 mb 0.02 in0.5 mm 0.12 in3.0 mm 0.02 in0.5 mm
08:48 AM 38.8°F3.8°C 34.4°F1.3°C 84% Calm Calm -- 30.19 in1022.4 mb 0.02 in0.5 mm 0.00 in0.0 mm 0.02 in0.5 mm
08:54 AM 38.9°F3.8°C 34.7°F1.5°C 85% Calm Calm -- 30.19 in1022.4 mb 0.02 in0.5 mm 0.00 in0.0 mm 0.02 in0.5 mm
08:58 AM 39.1°F3.9°C 34.8°F1.6°C 85% Calm Calm -- 30.18 in1022.0 mb 0.01 in0.3 mm 0.00 in0.0 mm 0.02 in0.5 mm
09:03 AM 39.3°F4.1°C 35.5°F1.9°C 86% Calm Calm -- 30.18 in1022.0 mb 0.01 in0.3 mm 0.00 in0.0 mm 0.02 in0.5 mm
09:08 AM 39.5°F4.2°C 36.0°F2.2°C 87% Calm Calm -- 30.19 in1022.4 mb 0.01 in0.3 mm 0.00 in0.0 mm 0.02 in0.5 mm
09:13 AM 39.5°F4.2°C 35.7°F2.1°C 86% Calm Calm -- 30.18 in1022.0 mb 0.01 in0.3 mm 0.00 in0.0 mm 0.02 in0.5 mm
09:14 AM 39.5°F4.2°C 35.7°F2.1°C 86% Calm Calm -- 30.18 in1022.0 mb 0.01 in0.3 mm 0.00 in0.0 mm 0.02 in0.5 mm
09:18 AM 39.8°F4.3°C 35.8°F2.1°C 86% Calm Calm -- 30.18 in1022.0 mb 0.01 in0.3 mm 0.00 in0.0 mm 0.02 in0.5 mm
09:23 AM 40.1°F4.5°C 36.5°F2.5°C 87% 1.0 mph SSW1.6 kmh SSW -- 30.18 in1022.0 mb 0.01 in0.3 mm 0.00 in0.0 mm 0.02 in0.5 mm
09:28 AM 40.1°F4.5°C 36.5°F2.5°C 87% Calm Calm -- 30.19 in1022.4 mb 0.01 in0.3 mm 0.00 in0.0 mm 0.02 in0.5 mm
09:33 AM 40.3°F4.6°C 36.7°F2.6°C 87% Calm Calm -- 30.18 in1022.0 mb 0.01 in0.3 mm 0.00 in0.0 mm 0.02 in0.5 mm
09:38 AM 40.5°F4.7°C 36.8°F2.7°C 87% Calm Calm -- 30.19 in1022.4 mb 0.00 in0.0 mm 0.00 in0.0 mm 0.02 in0.5 mm
09:43 AM 40.5°F4.7°C 36.8°F2.7°C 87% Calm Calm -- 30.19 in1022.4 mb 0.00 in0.0 mm 0.00 in0.0 mm 0.02 in0.5 mm
09:48 AM 40.7°F4.8°C 37.0°F2.8°C 87% Calm Calm -- 30.19 in1022.4 mb 0.00 in0.0 mm 0.00 in0.0 mm 0.02 in0.5 mm
09:53 AM 40.9°F4.9°C 37.2°F2.9°C 87% Calm Calm -- 30.19 in1022.4 mb 0.00 in0.0 mm 0.00 in0.0 mm 0.02 in0.5 mm
09:58 AM 41.0°F5.0°C 37.4°F3.0°C 87% 1.0 mph S1.6 kmh S -- 30.18 in1022.0 mb 0.00 in0.0 mm 0.00 in0.0 mm 0.02 in0.5 mm
10:03 AM 41.3°F5.2°C 37.7°F3.2°C 87% Calm Calm -- 30.18 in1022.0 mb 0.00 in0.0 mm 0.00 in0.0 mm 0.02 in0.5 mm
10:09 AM 41.4°F5.2°C 37.7°F3.2°C 87% Calm Calm -- 30.17 in1021.7 mb 0.00 in0.0 mm 0.00 in0.0 mm 0.02 in0.5 mm
10:13 AM 41.5°F5.3°C 38.2°F3.4°C 88% Calm Calm -- 30.17 in1021.7 mb 0.00 in0.0 mm 0.00 in0.0 mm 0.02 in0.5 mm
10:18 AM 41.7°F5.4°C 38.4°F3.6°C 88% 1.0 mph SE1.6 kmh SE -- 30.17 in1021.7 mb 0.00 in0.0 mm 0.00 in0.0 mm 0.02 in0.5 mm
10:23 AM 41.9°F5.5°C 38.6°F3.7°C 88% Calm Calm -- 30.17 in1021.7 mb 0.00 in0.0 mm 0.00 in0.0 mm 0.02 in0.5 mm
10:28 AM 41.9°F5.5°C 38.3°F3.5°C 87% Calm Calm -- 30.17 in1021.7 mb 0.00 in0.0 mm 0.00 in0.0 mm 0.02 in0.5 mm
10:33 AM 42.1°F5.6°C 38.4°F3.6°C 87% Calm Calm -- 30.16 in1021.3 mb 0.00 in0.0 mm 0.00 in0.0 mm 0.02 in0.5 mm
10:38 AM 42.2°F5.7°C 38.6°F3.7°C 87% Calm Calm -- 30.16 in1021.3 mb 0.00 in0.0 mm 0.00 in0.0 mm 0.02 in0.5 mm
10:43 AM 42.4°F5.8°C 38.8°F3.8°C 87% Calm Calm -- 30.16 in1021.3 mb 0.00 in0.0 mm 0.00 in0.0 mm 0.02 in0.5 mm
10:49 AM 42.9°F6.1°C 39.6°F4.2°C 88% 2.0 mph S3.2 kmh S -- 30.15 in1021.0 mb 0.00 in0.0 mm 0.00 in0.0 mm 0.02 in0.5 mm
10:53 AM 43.3°F6.3°C 40.0°F4.4°C 88% 2.0 mph SSE3.2 kmh SSE -- 30.15 in1021.0 mb 0.00 in0.0 mm 0.00 in0.0 mm 0.02 in0.5 mm
10:58 AM 43.6°F6.4°C 39.9°F4.4°C 87% 2.0 mph S3.2 kmh S -- 30.14 in1020.7 mb 0.00 in0.0 mm 0.00 in0.0 mm 0.02 in0.5 mm
11:03 AM 44.0°F6.7°C 40.4°F4.7°C 87% 1.0 mph S1.6 kmh S -- 30.14 in1020.7 mb 0.00 in0.0 mm 0.00 in0.0 mm 0.02 in0.5 mm
11:09 AM 44.5°F6.9°C 40.7°F4.8°C 87% Calm Calm -- 30.14 in1020.7 mb 0.00 in0.0 mm 0.00 in0.0 mm 0.02 in0.5 mm
11:13 AM 45.1°F7.3°C 41.2°F5.1°C 86% 1.0 mph SSE1.6 kmh SSE -- 30.14 in1020.7 mb 0.00 in0.0 mm 0.00 in0.0 mm 0.02 in0.5 mm
11:18 AM 45.4°F7.4°C 40.4°F4.7°C 83% 3.0 mph W4.8 kmh W -- 30.14 in1020.7 mb 0.00 in0.0 mm 0.00 in0.0 mm 0.02 in0.5 mm
11:23 AM 45.1°F7.3°C 40.2°F4.6°C 83% Calm Calm -- 30.14 in1020.7 mb 0.00 in0.0 mm 0.00 in0.0 mm 0.02 in0.5 mm
11:29 AM 45.1°F7.3°C 40.5°F4.7°C 84% 1.0 mph S1.6 kmh S -- 30.13 in1020.3 mb 0.00 in0.0 mm 0.00 in0.0 mm 0.02 in0.5 mm
11:33 AM 45.1°F7.3°C 40.5°F4.7°C 84% 1.0 mph S1.6 kmh S -- 30.13 in1020.3 mb 0.00 in0.0 mm 0.00 in0.0 mm 0.02 in0.5 mm
11:38 AM 45.2°F7.3°C 40.5°F4.7°C 84% 2.0 mph S3.2 kmh S -- 30.12 in1020.0 mb 0.00 in0.0 mm 0.00 in0.0 mm 0.02 in0.5 mm
11:43 AM 45.4°F7.4°C 41.0°F5.0°C 85% 2.0 mph S3.2 kmh S -- 30.12 in1020.0 mb 0.00 in0.0 mm 0.00 in0.0 mm 0.02 in0.5 mm
11:48 AM 45.6°F7.6°C 41.1°F5.1°C 84% 3.0 mph S4.8 kmh S -- 30.11 in1019.6 mb 0.00 in0.0 mm 0.00 in0.0 mm 0.02 in0.5 mm
11:53 AM 45.9°F7.7°C 41.2°F5.1°C 84% 2.0 mph SSW3.2 kmh SSW -- 30.11 in1019.6 mb 0.00 in0.0 mm 0.00 in0.0 mm 0.02 in0.5 mm
11:58 AM 46.0°F7.8°C 41.4°F5.2°C 84% 2.0 mph S3.2 kmh S -- 30.11 in1019.6 mb 0.00 in0.0 mm 0.00 in0.0 mm 0.02 in0.5 mm
12:04 PM 46.0°F7.8°C 41.4°F5.2°C 84% 2.0 mph SW3.2 kmh SW -- 30.12 in1020.0 mb 0.00 in0.0 mm 0.00 in0.0 mm 0.02 in0.5 mm
12:08 PM 45.9°F7.7°C 41.2°F5.1°C 84% 2.0 mph E3.2 kmh E -- 30.12 in1020.0 mb 0.00 in0.0 mm 0.00 in0.0 mm 0.02 in0.5 mm
12:13 PM 45.9°F7.7°C 41.2°F5.1°C 84% Calm Calm -- 30.11 in1019.6 mb 0.00 in0.0 mm 0.00 in0.0 mm 0.02 in0.5 mm
12:18 PM 45.9°F7.7°C 41.2°F5.1°C 84% 2.0 mph SSW3.2 kmh SSW -- 30.11 in1019.6 mb 0.00 in0.0 mm 0.00 in0.0 mm 0.02 in0.5 mm
12:23 PM 46.1°F7.8°C 41.4°F5.2°C 84% 2.0 mph S3.2 kmh S -- 30.10 in1019.3 mb 0.00 in0.0 mm 0.00 in0.0 mm 0.02 in0.5 mm
12:28 PM 46.2°F7.9°C 41.9°F5.5°C 85% 2.0 mph SW3.2 kmh SW -- 30.10 in1019.3 mb 0.00 in0.0 mm 0.00 in0.0 mm 0.02 in0.5 mm
12:33 PM 46.2°F7.9°C 41.6°F5.3°C 84% 4.0 mph WSW6.4 kmh WSW -- 30.09 in1019.0 mb 0.00 in0.0 mm 0.00 in0.0 mm 0.02 in0.5 mm
12:38 PM 46.2°F7.9°C 41.9°F5.5°C 85% 2.0 mph NNW3.2 kmh NNW -- 30.09 in1019.0 mb 0.00 in0.0 mm 0.00 in0.0 mm 0.02 in0.5 mm
12:44 PM 46.5°F8.1°C 42.0°F5.6°C 84% 2.0 mph SW3.2 kmh SW -- 30.09 in1019.0 mb 0.00 in0.0 mm 0.00 in0.0 mm 0.02 in0.5 mm
12:48 PM 46.5°F8.1°C 42.0°F5.6°C 84% 3.0 mph WSW4.8 kmh WSW -- 30.08 in1018.6 mb 0.00 in0.0 mm 0.00 in0.0 mm 0.02 in0.5 mm
12:53 PM 46.5°F8.1°C 42.3°F5.7°C 85% 4.0 mph WNW6.4 kmh WNW -- 30.08 in1018.6 mb 0.00 in0.0 mm 0.00 in0.0 mm 0.02 in0.5 mm
12:58 PM 46.4°F8.0°C 42.4°F5.8°C 86% 3.0 mph NW4.8 kmh NW -- 30.08 in1018.6 mb 0.00 in0.0 mm 0.00 in0.0 mm 0.02 in0.5 mm
01:04 PM 46.3°F7.9°C 42.2°F5.7°C 86% Calm Calm -- 30.08 in1018.6 mb 0.00 in0.0 mm 0.00 in0.0 mm 0.02 in0.5 mm
01:08 PM 46.3°F7.9°C 42.2°F5.7°C 86% Calm Calm -- 30.08 in1018.6 mb 0.00 in0.0 mm 0.00 in0.0 mm 0.02 in0.5 mm
01:13 PM 46.3°F7.9°C 42.2°F5.7°C 86% 4.0 mph WSW6.4 kmh WSW -- 30.07 in1018.3 mb 0.00 in0.0 mm 0.00 in0.0 mm 0.02 in0.5 mm
01:18 PM 46.2°F7.9°C 42.5°F5.8°C 87% Calm Calm -- 30.07 in1018.3 mb 0.00 in0.0 mm 0.00 in0.0 mm 0.02 in0.5 mm
01:23 PM 46.3°F7.9°C 42.8°F6.0°C 88% 2.0 mph S3.2 kmh S -- 30.07 in1018.3 mb 0.00 in0.0 mm 0.00 in0.0 mm 0.02 in0.5 mm
01:28 PM 46.4°F8.0°C 43.0°F6.1°C 88% 3.0 mph SSW4.8 kmh SSW -- 30.06 in1017.9 mb 0.00 in0.0 mm 0.00 in0.0 mm 0.02 in0.5 mm
01:33 PM 46.3°F7.9°C 42.8°F6.0°C 88% 2.0 mph S3.2 kmh S -- 30.06 in1017.9 mb 0.00 in0.0 mm 0.00 in0.0 mm 0.02 in0.5 mm
01:38 PM 46.2°F7.9°C 43.1°F6.2°C 89% 2.0 mph S3.2 kmh S -- 30.06 in1017.9 mb 0.00 in0.0 mm 0.00 in0.0 mm 0.02 in0.5 mm
01:43 PM 46.4°F8.0°C 43.6°F6.4°C 90% 3.0 mph SSW4.8 kmh SSW -- 30.04 in1017.3 mb 0.00 in0.0 mm 0.00 in0.0 mm 0.02 in0.5 mm
01:48 PM 46.3°F7.9°C 43.4°F6.3°C 90% 5.0 mph SSW8.0 kmh SSW -- 30.04 in1017.3 mb 0.00 in0.0 mm 0.00 in0.0 mm 0.02 in0.5 mm
01:53 PM 46.5°F8.1°C 43.8°F6.6°C 90% 6.0 mph S9.7 kmh S -- 30.04 in1017.3 mb 0.00 in0.0 mm 0.00 in0.0 mm 0.02 in0.5 mm
01:58 PM 46.6°F8.1°C 44.1°F6.7°C 91% 4.0 mph S6.4 kmh S -- 30.03 in1016.9 mb 0.00 in0.0 mm 0.00 in0.0 mm 0.02 in0.5 mm
02:03 PM 46.7°F8.2°C 44.2°F6.8°C 91% 3.0 mph S4.8 kmh S -- 30.03 in1016.9 mb 0.00 in0.0 mm 0.00 in0.0 mm 0.02 in0.5 mm
02:08 PM 46.9°F8.3°C 44.4°F6.9°C 91% 3.0 mph WSW4.8 kmh WSW -- 30.03 in1016.9 mb 0.00 in0.0 mm 0.00 in0.0 mm 0.02 in0.5 mm
02:13 PM 46.8°F8.2°C 44.2°F6.8°C 91% 3.0 mph NW4.8 kmh NW -- 30.04 in1017.3 mb 0.00 in0.0 mm 0.00 in0.0 mm 0.02 in0.5 mm
02:18 PM 46.5°F8.1°C 44.1°F6.7°C 91% 2.0 mph NW3.2 kmh NW -- 30.04 in1017.3 mb 0.00 in0.0 mm 0.00 in0.0 mm 0.02 in0.5 mm
02:23 PM 46.1°F7.8°C 43.5°F6.4°C 91% 3.0 mph NW4.8 kmh NW -- 30.04 in1017.3 mb 0.00 in0.0 mm 0.00 in0.0 mm 0.02 in0.5 mm
02:28 PM 45.5°F7.5°C 43.0°F6.1°C 91% 1.0 mph SW1.6 kmh SW -- 30.04 in1017.3 mb 0.00 in0.0 mm 0.00 in0.0 mm 0.02 in0.5 mm
02:33 PM 45.2°F7.3°C 42.6°F5.9°C 91% 3.0 mph N4.8 kmh N -- 30.04 in1017.3 mb 0.00 in0.0 mm 0.00 in0.0 mm 0.02 in0.5 mm
02:39 PM 44.9°F7.2°C 42.5°F5.8°C 91% 1.0 mph WSW1.6 kmh WSW -- 30.04 in1017.3 mb 0.00 in0.0 mm 0.00 in0.0 mm 0.02 in0.5 mm
02:43 PM 44.8°F7.1°C 42.6°F5.9°C 92% 1.0 mph E1.6 kmh E -- 30.04 in1017.3 mb 0.00 in0.0 mm 0.00 in0.0 mm 0.02 in0.5 mm
02:48 PM 44.7°F7.1°C 42.6°F5.9°C 92% Calm Calm -- 30.03 in1016.9 mb 0.00 in0.0 mm 0.00 in0.0 mm 0.02 in0.5 mm
02:53 PM 44.7°F7.1°C 42.6°F5.9°C 92% 1.0 mph WSW1.6 kmh WSW -- 30.03 in1016.9 mb 0.01 in0.3 mm 0.12 in3.0 mm 0.03 in0.8 mm
02:59 PM 44.7°F7.1°C 42.6°F5.9°C 92% 1.0 mph WSW1.6 kmh WSW -- 30.03 in1016.9 mb 0.01 in0.3 mm 0.00 in0.0 mm 0.03 in0.8 mm
03:03 PM 44.7°F7.1°C 42.6°F5.9°C 92% 1.0 mph SE1.6 kmh SE -- 30.03 in1016.9 mb 0.01 in0.3 mm 0.00 in0.0 mm 0.03 in0.8 mm
03:08 PM 44.7°F7.1°C 42.6°F5.9°C 92% 2.0 mph WNW3.2 kmh WNW -- 30.03 in1016.9 mb 0.01 in0.3 mm 0.00 in0.0 mm 0.03 in0.8 mm
03:13 PM 44.7°F7.1°C 42.6°F5.9°C 92% Calm Calm -- 30.03 in1016.9 mb 0.01 in0.3 mm 0.00 in0.0 mm 0.03 in0.8 mm
03:19 PM 44.8°F7.1°C 42.9°F6.1°C 93% Calm Calm -- 30.03 in1016.9 mb 0.01 in0.3 mm 0.00 in0.0 mm 0.03 in0.8 mm
03:23 PM 44.7°F7.1°C 42.9°F6.1°C 93% 2.0 mph SSW3.2 kmh SSW -- 30.03 in1016.9 mb 0.01 in0.3 mm 0.00 in0.0 mm 0.03 in0.8 mm
03:28 PM 44.7°F7.1°C 42.9°F6.1°C 93% 1.0 mph NW1.6 kmh NW -- 30.03 in1016.9 mb 0.01 in0.3 mm 0.00 in0.0 mm 0.03 in0.8 mm
03:33 PM 44.6°F7.0°C 42.7°F5.9°C 93% 2.0 mph W3.2 kmh W -- 30.03 in1016.9 mb 0.01 in0.3 mm 0.00 in0.0 mm 0.03 in0.8 mm
03:38 PM 44.7°F7.1°C 42.9°F6.1°C 93% 2.0 mph WSW3.2 kmh WSW -- 30.03 in1016.9 mb 0.01 in0.3 mm 0.00 in0.0 mm 0.03 in0.8 mm
03:43 PM 44.6°F7.0°C 42.7°F5.9°C 93% 1.0 mph S1.6 kmh S -- 30.03 in1016.9 mb 0.01 in0.3 mm 0.00 in0.0 mm 0.03 in0.8 mm
03:48 PM 44.6°F7.0°C 42.7°F5.9°C 93% 1.0 mph SW1.6 kmh SW -- 30.03 in1016.9 mb 0.00 in0.0 mm 0.00 in0.0 mm 0.03 in0.8 mm
03:53 PM 44.5°F6.9°C 42.8°F6.0°C 94% 2.0 mph WSW3.2 kmh WSW -- 30.03 in1016.9 mb 0.00 in0.0 mm 0.00 in0.0 mm 0.03 in0.8 mm
03:58 PM 44.4°F6.9°C 42.8°F6.0°C 94% 2.0 mph WSW3.2 kmh WSW -- 30.03 in1016.9 mb 0.00 in0.0 mm 0.00 in0.0 mm 0.03 in0.8 mm
04:03 PM 44.2°F6.8°C 42.6°F5.9°C 94% 1.0 mph SW1.6 kmh SW -- 30.03 in1016.9 mb 0.00 in0.0 mm 0.00 in0.0 mm 0.03 in0.8 mm
04:08 PM 44.1°F6.7°C 42.4°F5.8°C 94% 1.0 mph SW1.6 kmh SW -- 30.04 in1017.3 mb 0.00 in0.0 mm 0.00 in0.0 mm 0.03 in0.8 mm
04:13 PM 43.9°F6.6°C 42.2°F5.7°C 94% 1.0 mph S1.6 kmh S -- 30.04 in1017.3 mb 0.00 in0.0 mm 0.00 in0.0 mm 0.03 in0.8 mm
04:18 PM 43.9°F6.6°C 42.2°F5.7°C 94% 1.0 mph SE1.6 kmh SE -- 30.04 in1017.3 mb 0.00 in0.0 mm 0.00 in0.0 mm 0.03 in0.8 mm
04:23 PM 43.8°F6.6°C 42.2°F5.7°C 94% 3.0 mph W4.8 kmh W -- 30.04 in1017.3 mb 0.00 in0.0 mm 0.00 in0.0 mm 0.03 in0.8 mm
04:28 PM 43.7°F6.5°C 42.3°F5.7°C 95% Calm Calm -- 30.04 in1017.3 mb 0.00 in0.0 mm 0.00 in0.0 mm 0.03 in0.8 mm
04:33 PM 43.7°F6.5°C 42.3°F5.7°C 95% Calm Calm -- 30.04 in1017.3 mb 0.00 in0.0 mm 0.00 in0.0 mm 0.03 in0.8 mm
04:38 PM 43.6°F6.4°C 42.2°F5.7°C 95% 1.0 mph ESE1.6 kmh ESE -- 30.04 in1017.3 mb 0.00 in0.0 mm 0.00 in0.0 mm 0.03 in0.8 mm
04:43 PM 43.7°F6.5°C 42.3°F5.7°C 95% Calm Calm -- 30.03 in1016.9 mb 0.00 in0.0 mm 0.00 in0.0 mm 0.03 in0.8 mm
04:48 PM 43.6°F6.4°C 42.2°F5.7°C 95% Calm Calm -- 30.04 in1017.3 mb 0.00 in0.0 mm 0.00 in0.0 mm 0.03 in0.8 mm
04:53 PM 43.6°F6.4°C 42.2°F5.7°C 95% 2.0 mph SSW3.2 kmh SSW -- 30.03 in1016.9 mb 0.00 in0.0 mm 0.00 in0.0 mm 0.03 in0.8 mm
04:58 PM 43.5°F6.4°C 42.2°F5.7°C 95% 1.0 mph S1.6 kmh S -- 30.03 in1016.9 mb 0.00 in0.0 mm 0.00 in0.0 mm 0.03 in0.8 mm
05:03 PM 43.4°F6.3°C 42.0°F5.6°C 95% 1.0 mph WSW1.6 kmh WSW -- 30.04 in1017.3 mb 0.00 in0.0 mm 0.00 in0.0 mm 0.03 in0.8 mm
05:08 PM 43.4°F6.3°C 42.0°F5.6°C 95% 2.0 mph SSW3.2 kmh SSW -- 30.04 in1017.3 mb 0.00 in0.0 mm 0.00 in0.0 mm 0.03 in0.8 mm
05:14 PM 43.3°F6.3°C 42.0°F5.6°C 95% 2.0 mph SSW3.2 kmh SSW -- 30.04 in1017.3 mb 0.00 in0.0 mm 0.00 in0.0 mm 0.03 in0.8 mm
05:18 PM 43.4°F6.3°C 42.0°F5.6°C 95% 2.0 mph S3.2 kmh S -- 30.04 in1017.3 mb 0.00 in0.0 mm 0.00 in0.0 mm 0.03 in0.8 mm
05:23 PM 43.4°F6.3°C 42.3°F5.7°C 96% 1.0 mph SSW1.6 kmh SSW -- 30.04 in1017.3 mb 0.00 in0.0 mm 0.00 in0.0 mm 0.03 in0.8 mm
05:28 PM 43.5°F6.4°C 42.4°F5.8°C 96% Calm Calm -- 30.04 in1017.3 mb 0.00 in0.0 mm 0.00 in0.0 mm 0.03 in0.8 mm
05:34 PM 43.5°F6.4°C 42.4°F5.8°C 96% 1.0 mph S1.6 kmh S -- 30.04 in1017.3 mb 0.00 in0.0 mm 0.00 in0.0 mm 0.03 in0.8 mm
05:38 PM 43.6°F6.4°C 42.4°F5.8°C 96% Calm Calm -- 30.04 in1017.3 mb 0.00 in0.0 mm 0.00 in0.0 mm 0.03 in0.8 mm
05:43 PM 43.6°F6.4°C 42.4°F5.8°C 96% 1.0 mph S1.6 kmh S -- 30.03 in1016.9 mb 0.00 in0.0 mm 0.00 in0.0 mm 0.03 in0.8 mm
05:48 PM 43.8°F6.6°C 42.8°F6.0°C 96% 2.0 mph SW3.2 kmh SW -- 30.03 in1016.9 mb 0.00 in0.0 mm 0.00 in0.0 mm 0.03 in0.8 mm
05:54 PM 43.8°F6.6°C 42.8°F6.0°C 96% 2.0 mph S3.2 kmh S -- 30.03 in1016.9 mb 0.00 in0.0 mm 0.00 in0.0 mm 0.03 in0.8 mm
05:58 PM 44.0°F6.7°C 43.0°F6.1°C 96% Calm Calm -- 30.03 in1016.9 mb 0.00 in0.0 mm 0.00 in0.0 mm 0.03 in0.8 mm
06:03 PM 44.0°F6.7°C 43.0°F6.1°C 96% Calm Calm -- 30.03 in1016.9 mb 0.00 in0.0 mm 0.00 in0.0 mm 0.03 in0.8 mm
06:08 PM 44.0°F6.7°C 43.0°F6.1°C 96% 1.0 mph SSE1.6 kmh SSE -- 30.04 in1017.3 mb 0.00 in0.0 mm 0.00 in0.0 mm 0.03 in0.8 mm
06:13 PM 44.1°F6.7°C 43.0°F6.1°C 96% 2.0 mph S3.2 kmh S -- 30.04 in1017.3 mb 0.00 in0.0 mm 0.00 in0.0 mm 0.03 in0.8 mm
06:18 PM 44.1°F6.7°C 43.0°F6.1°C 96% 3.0 mph S4.8 kmh S -- 30.04 in1017.3 mb 0.00 in0.0 mm 0.00 in0.0 mm 0.03 in0.8 mm
06:23 PM 44.1°F6.7°C 43.0°F6.1°C 96% 2.0 mph S3.2 kmh S -- 30.03 in1016.9 mb 0.00 in0.0 mm 0.00 in0.0 mm 0.03 in0.8 mm
06:28 PM 44.2°F6.8°C 43.2°F6.2°C 96% 2.0 mph S3.2 kmh S -- 30.03 in1016.9 mb 0.00 in0.0 mm 0.00 in0.0 mm 0.03 in0.8 mm
06:33 PM 44.3°F6.8°C 43.2°F6.2°C 96% 4.0 mph SSW6.4 kmh SSW -- 30.04 in1017.3 mb 0.00 in0.0 mm 0.00 in0.0 mm 0.03 in0.8 mm
06:38 PM 44.4°F6.9°C 43.3°F6.3°C 96% 5.0 mph S8.0 kmh S -- 30.04 in1017.3 mb 0.00 in0.0 mm 0.00 in0.0 mm 0.03 in0.8 mm
06:43 PM 44.4°F6.9°C 43.3°F6.3°C 96% 3.0 mph WSW4.8 kmh WSW -- 30.03 in1016.9 mb 0.00 in0.0 mm 0.00 in0.0 mm 0.03 in0.8 mm
06:48 PM 44.5°F6.9°C 43.3°F6.3°C 96% 2.0 mph S3.2 kmh S -- 30.04 in1017.3 mb 0.00 in0.0 mm 0.00 in0.0 mm 0.03 in0.8 mm
06:53 PM 44.5°F6.9°C 43.6°F6.4°C 97% 4.0 mph S6.4 kmh S -- 30.03 in1016.9 mb 0.00 in0.0 mm 0.00 in0.0 mm 0.03 in0.8 mm
06:58 PM 44.6°F7.0°C 43.8°F6.6°C 97% 3.0 mph SW4.8 kmh SW -- 30.03 in1016.9 mb 0.00 in0.0 mm 0.00 in0.0 mm 0.03 in0.8 mm
07:03 PM 44.8°F7.1°C 44.0°F6.7°C 97% 4.0 mph S6.4 kmh S -- 30.04 in1017.3 mb 0.00 in0.0 mm 0.00 in0.0 mm 0.03 in0.8 mm
07:09 PM 44.9°F7.2°C 44.1°F6.7°C 97% 4.0 mph SSW6.4 kmh SSW -- 30.03 in1016.9 mb 0.00 in0.0 mm 0.00 in0.0 mm 0.03 in0.8 mm
07:13 PM 45.0°F7.2°C 44.1°F6.7°C 97% 6.0 mph S9.7 kmh S -- 30.04 in1017.3 mb 0.00 in0.0 mm 0.00 in0.0 mm 0.03 in0.8 mm
07:18 PM 45.2°F7.3°C 44.1°F6.7°C 96% 2.0 mph S3.2 kmh S -- 30.04 in1017.3 mb 0.00 in0.0 mm 0.00 in0.0 mm 0.03 in0.8 mm
07:23 PM 45.1°F7.3°C 44.1°F6.7°C 96% 4.0 mph SSW6.4 kmh SSW -- 30.04 in1017.3 mb 0.00 in0.0 mm 0.00 in0.0 mm 0.03 in0.8 mm
07:29 PM 45.3°F7.4°C 44.2°F6.8°C 96% 2.0 mph S3.2 kmh S -- 30.04 in1017.3 mb 0.00 in0.0 mm 0.00 in0.0 mm 0.03 in0.8 mm
07:33 PM 45.3°F7.4°C 44.2°F6.8°C 96% 6.0 mph SW9.7 kmh SW -- 30.05 in1017.6 mb 0.00 in0.0 mm 0.00 in0.0 mm 0.03 in0.8 mm
07:38 PM 45.3°F7.4°C 44.2°F6.8°C 96% 2.0 mph S3.2 kmh S -- 30.05 in1017.6 mb 0.00 in0.0 mm 0.00 in0.0 mm 0.03 in0.8 mm
07:43 PM 45.5°F7.5°C 44.4°F6.9°C 96% 3.0 mph S4.8 kmh S -- 30.05 in1017.6 mb 0.00 in0.0 mm 0.00 in0.0 mm 0.03 in0.8 mm
07:48 PM 45.6°F7.6°C 44.9°F7.2°C 97% 4.0 mph SSW6.4 kmh SSW -- 30.05 in1017.6 mb 0.00 in0.0 mm 0.00 in0.0 mm 0.03 in0.8 mm
07:53 PM 45.6°F7.6°C 44.6°F7.0°C 96% 3.0 mph SSE4.8 kmh SSE -- 30.05 in1017.6 mb 0.00 in0.0 mm 0.00 in0.0 mm 0.03 in0.8 mm
07:58 PM 45.9°F7.7°C 45.0°F7.2°C 97% 3.0 mph SW4.8 kmh SW -- 30.05 in1017.6 mb 0.00 in0.0 mm 0.00 in0.0 mm 0.03 in0.8 mm
08:03 PM 46.0°F7.8°C 45.2°F7.3°C 97% 5.0 mph S8.0 kmh S -- 30.04 in1017.3 mb 0.00 in0.0 mm 0.00 in0.0 mm 0.03 in0.8 mm
08:08 PM 46.2°F7.9°C 45.4°F7.4°C 97% 5.0 mph SSW8.0 kmh SSW -- 30.04 in1017.3 mb 0.00 in0.0 mm 0.00 in0.0 mm 0.03 in0.8 mm
08:13 PM 46.5°F8.1°C 45.8°F7.7°C 97% 7.0 mph S11.3 kmh S -- 30.04 in1017.3 mb 0.00 in0.0 mm 0.00 in0.0 mm 0.03 in0.8 mm
08:18 PM 46.9°F8.3°C 46.1°F7.8°C 97% 4.0 mph SSW6.4 kmh SSW -- 30.04 in1017.3 mb 0.00 in0.0 mm 0.00 in0.0 mm 0.03 in0.8 mm
08:23 PM 47.3°F8.5°C 46.5°F8.1°C 97% 7.0 mph S11.3 kmh S -- 30.04 in1017.3 mb 0.00 in0.0 mm 0.00 in0.0 mm 0.03 in0.8 mm
08:28 PM 47.7°F8.7°C 46.8°F8.2°C 97% 6.0 mph S9.7 kmh S -- 30.04 in1017.3 mb 0.00 in0.0 mm 0.00 in0.0 mm 0.03 in0.8 mm
08:33 PM 48.0°F8.9°C 47.2°F8.4°C 97% 8.0 mph S12.9 kmh S -- 30.04 in1017.3 mb 0.00 in0.0 mm 0.00 in0.0 mm 0.03 in0.8 mm
08:38 PM 48.3°F9.1°C 47.6°F8.7°C 97% 1.0 mph SW1.6 kmh SW -- 30.05 in1017.6 mb 0.00 in0.0 mm 0.00 in0.0 mm 0.03 in0.8 mm
08:43 PM 48.4°F9.1°C 47.6°F8.7°C 97% 2.0 mph SSW3.2 kmh SSW -- 30.05 in1017.6 mb 0.00 in0.0 mm 0.00 in0.0 mm 0.03 in0.8 mm
08:48 PM 48.9°F9.4°C 48.1°F8.9°C 97% 1.0 mph SSE1.6 kmh SSE -- 30.05 in1017.6 mb 0.00 in0.0 mm 0.00 in0.0 mm 0.03 in0.8 mm
08:53 PM 49.1°F9.5°C 48.3°F9.1°C 97% 6.0 mph S9.7 kmh S -- 30.05 in1017.6 mb 0.00 in0.0 mm 0.00 in0.0 mm 0.03 in0.8 mm
08:58 PM 49.4°F9.7°C 48.6°F9.2°C 97% 4.0 mph SSE6.4 kmh SSE -- 30.06 in1017.9 mb 0.00 in0.0 mm 0.00 in0.0 mm 0.03 in0.8 mm
09:04 PM 49.6°F9.8°C 48.8°F9.3°C 97% 1.0 mph S1.6 kmh S -- 30.05 in1017.6 mb 0.00 in0.0 mm 0.00 in0.0 mm 0.03 in0.8 mm
09:08 PM 49.6°F9.8°C 48.8°F9.3°C 97% Calm Calm -- 30.05 in1017.6 mb 0.00 in0.0 mm 0.00 in0.0 mm 0.03 in0.8 mm
09:13 PM 49.8°F9.9°C 49.0°F9.4°C 97% 3.0 mph SW4.8 kmh SW -- 30.05 in1017.6 mb 0.00 in0.0 mm 0.00 in0.0 mm 0.03 in0.8 mm
09:18 PM 50.0°F10.0°C 49.2°F9.6°C 97% 3.0 mph S4.8 kmh S -- 30.05 in1017.6 mb 0.00 in0.0 mm 0.00 in0.0 mm 0.03 in0.8 mm
09:24 PM 50.2°F10.1°C 49.4°F9.7°C 97% 4.0 mph S6.4 kmh S -- 30.05 in1017.6 mb 0.00 in0.0 mm 0.00 in0.0 mm 0.03 in0.8 mm
09:28 PM 50.2°F10.1°C 49.4°F9.7°C 97% 6.0 mph WNW9.7 kmh WNW -- 30.04 in1017.3 mb 0.00 in0.0 mm 0.00 in0.0 mm 0.03 in0.8 mm
09:33 PM 50.3°F10.2°C 49.5°F9.7°C 97% 9.0 mph S14.5 kmh S -- 30.04 in1017.3 mb 0.00 in0.0 mm 0.00 in0.0 mm 0.03 in0.8 mm
09:38 PM 50.4°F10.2°C 49.8°F9.9°C 98% 4.0 mph S6.4 kmh S -- 30.04 in1017.3 mb 0.00 in0.0 mm 0.00 in0.0 mm 0.03 in0.8 mm
09:43 PM 50.4°F10.2°C 49.8°F9.9°C 98% 4.0 mph SW6.4 kmh SW -- 30.04 in1017.3 mb 0.00 in0.0 mm 0.00 in0.0 mm 0.03 in0.8 mm
09:48 PM 50.4°F10.2°C 49.8°F9.9°C 98% 5.0 mph WSW8.0 kmh WSW -- 30.04 in1017.3 mb 0.00 in0.0 mm 0.00 in0.0 mm 0.03 in0.8 mm
09:53 PM 50.5°F10.3°C 50.0°F10.0°C 98% 4.0 mph SSE6.4 kmh SSE -- 30.04 in1017.3 mb 0.00 in0.0 mm 0.00 in0.0 mm 0.03 in0.8 mm
09:58 PM 50.4°F10.2°C 49.8°F9.9°C 98% 4.0 mph SE6.4 kmh SE -- 30.05 in1017.6 mb 0.00 in0.0 mm 0.00 in0.0 mm 0.03 in0.8 mm
10:03 PM 50.4°F10.2°C 49.8°F9.9°C 98% 2.0 mph SSE3.2 kmh SSE -- 30.05 in1017.6 mb 0.00 in0.0 mm 0.00 in0.0 mm 0.03 in0.8 mm
10:08 PM 50.5°F10.3°C 50.0°F10.0°C 98% 5.0 mph NNW8.0 kmh NNW -- 30.04 in1017.3 mb 0.00 in0.0 mm 0.00 in0.0 mm 0.03 in0.8 mm
10:13 PM 50.5°F10.3°C 50.0°F10.0°C 98% 5.0 mph S8.0 kmh S -- 30.04 in1017.3 mb 0.00 in0.0 mm 0.00 in0.0 mm 0.03 in0.8 mm
10:18 PM 50.5°F10.3°C 50.0°F10.0°C 98% 4.0 mph SW6.4 kmh SW -- 30.04 in1017.3 mb 0.00 in0.0 mm 0.00 in0.0 mm 0.03 in0.8 mm
10:23 PM 50.6°F10.3°C 50.0°F10.0°C 98% 6.0 mph SSE9.7 kmh SSE -- 30.04 in1017.3 mb 0.00 in0.0 mm 0.00 in0.0 mm 0.03 in0.8 mm
10:28 PM 50.8°F10.4°C 50.2°F10.1°C 98% 6.0 mph SW9.7 kmh SW -- 30.04 in1017.3 mb 0.00 in0.0 mm 0.00 in0.0 mm 0.03 in0.8 mm
10:33 PM 51.0°F10.6°C 50.5°F10.3°C 98% 9.0 mph S14.5 kmh S -- 30.04 in1017.3 mb 0.00 in0.0 mm 0.00 in0.0 mm 0.03 in0.8 mm
10:38 PM 51.1°F10.6°C 50.5°F10.3°C 98% 5.0 mph S8.0 kmh S -- 30.03 in1016.9 mb 0.00 in0.0 mm 0.00 in0.0 mm 0.03 in0.8 mm
10:43 PM 51.2°F10.7°C 50.7°F10.4°C 98% 3.0 mph SSW4.8 kmh SSW -- 30.03 in1016.9 mb 0.00 in0.0 mm 0.00 in0.0 mm 0.03 in0.8 mm
10:48 PM 51.4°F10.8°C 50.9°F10.5°C 98% 3.0 mph W4.8 kmh W -- 30.04 in1017.3 mb 0.00 in0.0 mm 0.00 in0.0 mm 0.03 in0.8 mm
10:53 PM 51.4°F10.8°C 50.9°F10.5°C 98% 6.0 mph SW9.7 kmh SW -- 30.03 in1016.9 mb 0.00 in0.0 mm 0.00 in0.0 mm 0.03 in0.8 mm
10:59 PM 51.5°F10.8°C 50.9°F10.5°C 98% 3.0 mph WSW4.8 kmh WSW -- 30.04 in1017.3 mb 0.00 in0.0 mm 0.00 in0.0 mm 0.03 in0.8 mm
11:03 PM 51.5°F10.8°C 50.9°F10.5°C 98% Calm Calm -- 30.04 in1017.3 mb 0.00 in0.0 mm 0.00 in0.0 mm 0.03 in0.8 mm
11:08 PM 51.7°F10.9°C 51.1°F10.6°C 98% 1.0 mph SSW1.6 kmh SSW -- 30.04 in1017.3 mb 0.00 in0.0 mm 0.00 in0.0 mm 0.03 in0.8 mm
11:13 PM 51.8°F11.0°C 51.2°F10.7°C 98% 5.0 mph S8.0 kmh S -- 30.04 in1017.3 mb 0.00 in0.0 mm 0.00 in0.0 mm 0.03 in0.8 mm
11:19 PM 51.9°F11.1°C 51.4°F10.8°C 98% 4.0 mph SSE6.4 kmh SSE -- 30.04 in1017.3 mb 0.00 in0.0 mm 0.00 in0.0 mm 0.03 in0.8 mm
11:23 PM 51.9°F11.1°C 51.1°F10.6°C 97% 4.0 mph SW6.4 kmh SW -- 30.04 in1017.3 mb 0.00 in0.0 mm 0.00 in0.0 mm 0.03 in0.8 mm
11:28 PM 51.9°F11.1°C 51.1°F10.6°C 97% 4.0 mph SW6.4 kmh SW -- 30.03 in1016.9 mb 0.00 in0.0 mm 0.00 in0.0 mm 0.03 in0.8 mm
11:33 PM 52.0°F11.1°C 51.1°F10.6°C 97% 3.0 mph S4.8 kmh S -- 30.04 in1017.3 mb 0.00 in0.0 mm 0.00 in0.0 mm 0.03 in0.8 mm
11:39 PM 51.9°F11.1°C 51.1°F10.6°C 97% 2.0 mph S3.2 kmh S -- 30.04 in1017.3 mb 0.00 in0.0 mm 0.00 in0.0 mm 0.03 in0.8 mm
11:43 PM 51.9°F11.1°C 51.1°F10.6°C 97% Calm Calm -- 30.03 in1016.9 mb 0.00 in0.0 mm 0.00 in0.0 mm 0.03 in0.8 mm
11:48 PM 52.0°F11.1°C 51.1°F10.6°C 97% 2.0 mph SW3.2 kmh SW -- 30.04 in1017.3 mb 0.00 in0.0 mm 0.00 in0.0 mm 0.03 in0.8 mm
11:54 PM 52.0°F11.1°C 51.1°F10.6°C 97% 4.0 mph SSE6.4 kmh SSE -- 30.03 in1016.9 mb 0.00 in0.0 mm 0.00 in0.0 mm 0.03 in0.8 mm
11:58 PM 52.1°F11.2°C 51.3°F10.7°C 97% 5.0 mph SW8.0 kmh SW -- 30.03 in1016.9 mb 0.00 in0.0 mm 0.00 in0.0 mm 0.03 in0.8 mm